sensor_id;sensor_type;location;lat;lon;timestamp;P1;durP1;ratioP1;P2;durP2;ratioP2
31442;SDS011;18065;55.876;9.830;2022-07-17T00:02:27;2.28;;;0.93;;
31442;SDS011;18065;55.876;9.830;2022-07-17T00:04:56;2.13;;;0.52;;
31442;SDS011;18065;55.876;9.830;2022-07-17T00:07:24;3.05;;;0.65;;
31442;SDS011;18065;55.876;9.830;2022-07-17T00:09:53;2.17;;;0.47;;
31442;SDS011;18065;55.876;9.830;2022-07-17T00:12:22;2.13;;;0.65;;
31442;SDS011;18065;55.876;9.830;2022-07-17T00:14:51;5.07;;;0.65;;
31442;SDS011;18065;55.876;9.830;2022-07-17T00:17:19;1.33;;;0.75;;
31442;SDS011;18065;55.876;9.830;2022-07-17T00:19:51;6.80;;;0.73;;
31442;SDS011;18065;55.876;9.830;2022-07-17T00:22:20;2.90;;;0.70;;
31442;SDS011;18065;55.876;9.830;2022-07-17T00:24:49;2.28;;;0.70;;
31442;SDS011;18065;55.876;9.830;2022-07-17T00:27:17;5.13;;;1.23;;
31442;SDS011;18065;55.876;9.830;2022-07-17T00:29:46;4.10;;;0.93;;
31442;SDS011;18065;55.876;9.830;2022-07-17T00:32:15;1.98;;;0.82;;
31442;SDS011;18065;55.876;9.830;2022-07-17T00:34:43;1.20;;;0.68;;
31442;SDS011;18065;55.876;9.830;2022-07-17T00:37:15;1.90;;;0.55;;
31442;SDS011;18065;55.876;9.830;2022-07-17T00:39:44;2.50;;;1.15;;
31442;SDS011;18065;55.876;9.830;2022-07-17T00:42:13;2.80;;;0.95;;
31442;SDS011;18065;55.876;9.830;2022-07-17T00:44:43;2.13;;;0.70;;
31442;SDS011;18065;55.876;9.830;2022-07-17T00:47:12;2.05;;;0.80;;
31442;SDS011;18065;55.876;9.830;2022-07-17T00:49:43;2.95;;;0.82;;
31442;SDS011;18065;55.876;9.830;2022-07-17T00:52:15;3.53;;;0.55;;
31442;SDS011;18065;55.876;9.830;2022-07-17T00:54:45;3.78;;;1.02;;
31442;SDS011;18065;55.876;9.830;2022-07-17T00:57:15;2.08;;;0.80;;
31442;SDS011;18065;55.876;9.830;2022-07-17T00:59:43;3.67;;;0.80;;
31442;SDS011;18065;55.876;9.830;2022-07-17T01:02:12;2.70;;;0.60;;
31442;SDS011;18065;55.876;9.830;2022-07-17T01:04:41;3.55;;;0.98;;
31442;SDS011;18065;55.876;9.830;2022-07-17T01:07:10;2.92;;;0.73;;
31442;SDS011;18065;55.876;9.830;2022-07-17T01:09:42;2.60;;;0.82;;
31442;SDS011;18065;55.876;9.830;2022-07-17T01:12:12;4.35;;;0.90;;
31442;SDS011;18065;55.876;9.830;2022-07-17T01:14:41;3.63;;;0.85;;
31442;SDS011;18065;55.876;9.830;2022-07-17T01:17:10;3.10;;;0.70;;
31442;SDS011;18065;55.876;9.830;2022-07-17T01:19:39;3.40;;;0.75;;
31442;SDS011;18065;55.876;9.830;2022-07-17T01:22:10;4.35;;;1.05;;
31442;SDS011;18065;55.876;9.830;2022-07-17T01:24:39;2.45;;;0.80;;
31442;SDS011;18065;55.876;9.830;2022-07-17T01:27:08;2.15;;;0.70;;
31442;SDS011;18065;55.876;9.830;2022-07-17T01:29:37;2.15;;;0.80;;
31442;SDS011;18065;55.876;9.830;2022-07-17T01:32:06;2.90;;;1.00;;
31442;SDS011;18065;55.876;9.830;2022-07-17T01:34:36;1.60;;;0.60;;
31442;SDS011;18065;55.876;9.830;2022-07-17T01:37:04;3.78;;;0.98;;
31442;SDS011;18065;55.876;9.830;2022-07-17T01:39:36;1.45;;;0.50;;
31442;SDS011;18065;55.876;9.830;2022-07-17T01:42:17;3.30;;;0.70;;
31442;SDS011;18065;55.876;9.830;2022-07-17T01:44:45;2.50;;;0.73;;
31442;SDS011;18065;55.876;9.830;2022-07-17T01:47:14;2.08;;;0.70;;
31442;SDS011;18065;55.876;9.830;2022-07-17T01:49:44;1.88;;;0.73;;
31442;SDS011;18065;55.876;9.830;2022-07-17T01:52:13;4.43;;;1.10;;
31442;SDS011;18065;55.876;9.830;2022-07-17T01:54:44;2.53;;;0.77;;
31442;SDS011;18065;55.876;9.830;2022-07-17T01:57:13;1.65;;;0.52;;
31442;SDS011;18065;55.876;9.830;2022-07-17T01:59:43;2.38;;;1.02;;
31442;SDS011;18065;55.876;9.830;2022-07-17T02:02:13;1.67;;;0.50;;
31442;SDS011;18065;55.876;9.830;2022-07-17T02:04:43;2.95;;;0.90;;
31442;SDS011;18065;55.876;9.830;2022-07-17T02:07:12;3.50;;;1.08;;
31442;SDS011;18065;55.876;9.830;2022-07-17T02:09:41;1.85;;;0.63;;
31442;SDS011;18065;55.876;9.830;2022-07-17T02:12:12;3.75;;;0.90;;
31442;SDS011;18065;55.876;9.830;2022-07-17T02:14:41;5.20;;;0.90;;
31442;SDS011;18065;55.876;9.830;2022-07-17T02:17:09;3.05;;;1.33;;
31442;SDS011;18065;55.876;9.830;2022-07-17T02:19:38;3.47;;;1.27;;
31442;SDS011;18065;55.876;9.830;2022-07-17T02:22:07;2.97;;;0.80;;
31442;SDS011;18065;55.876;9.830;2022-07-17T02:24:36;3.38;;;0.80;;
31442;SDS011;18065;55.876;9.830;2022-07-17T02:27:04;2.55;;;0.90;;
31442;SDS011;18065;55.876;9.830;2022-07-17T02:29:36;4.28;;;0.73;;
31442;SDS011;18065;55.876;9.830;2022-07-17T02:32:05;2.85;;;0.75;;
31442;SDS011;18065;55.876;9.830;2022-07-17T02:34:33;4.30;;;0.95;;
31442;SDS011;18065;55.876;9.830;2022-07-17T02:37:02;3.05;;;0.70;;
31442;SDS011;18065;55.876;9.830;2022-07-17T02:39:31;3.40;;;1.10;;
31442;SDS011;18065;55.876;9.830;2022-07-17T02:42:00;3.03;;;1.17;;
31442;SDS011;18065;55.876;9.830;2022-07-17T02:44:28;2.83;;;0.98;;
31442;SDS011;18065;55.876;9.830;2022-07-17T02:47:01;2.20;;;0.90;;
31442;SDS011;18065;55.876;9.830;2022-07-17T02:49:30;5.65;;;1.05;;
31442;SDS011;18065;55.876;9.830;2022-07-17T02:51:58;12.15;;;1.23;;
31442;SDS011;18065;55.876;9.830;2022-07-17T02:54:27;2.40;;;0.65;;
31442;SDS011;18065;55.876;9.830;2022-07-17T02:56:56;3.33;;;0.90;;
31442;SDS011;18065;55.876;9.830;2022-07-17T02:59:24;3.38;;;1.00;;
31442;SDS011;18065;55.876;9.830;2022-07-17T03:01:53;4.93;;;0.90;;
31442;SDS011;18065;55.876;9.830;2022-07-17T03:04:24;4.05;;;1.00;;
31442;SDS011;18065;55.876;9.830;2022-07-17T03:06:53;3.95;;;1.15;;
31442;SDS011;18065;55.876;9.830;2022-07-17T03:09:22;4.38;;;0.95;;
31442;SDS011;18065;55.876;9.830;2022-07-17T03:11:50;4.47;;;0.80;;
31442;SDS011;18065;55.876;9.830;2022-07-17T03:14:19;3.72;;;1.38;;
31442;SDS011;18065;55.876;9.830;2022-07-17T03:16:48;3.08;;;0.90;;
31442;SDS011;18065;55.876;9.830;2022-07-17T03:19:17;3.00;;;0.68;;
31442;SDS011;18065;55.876;9.830;2022-07-17T03:21:48;4.55;;;0.80;;
31442;SDS011;18065;55.876;9.830;2022-07-17T03:24:17;5.88;;;0.80;;
31442;SDS011;18065;55.876;9.830;2022-07-17T03:26:45;3.97;;;0.82;;
31442;SDS011;18065;55.876;9.830;2022-07-17T03:29:14;2.33;;;0.93;;
31442;SDS011;18065;55.876;9.830;2022-07-17T03:31:43;3.65;;;0.88;;
31442;SDS011;18065;55.876;9.830;2022-07-17T03:34:12;5.65;;;0.90;;
31442;SDS011;18065;55.876;9.830;2022-07-17T03:36:41;3.10;;;0.70;;
31442;SDS011;18065;55.876;9.830;2022-07-17T03:39:13;3.60;;;1.10;;
31442;SDS011;18065;55.876;9.830;2022-07-17T03:41:42;4.88;;;0.90;;
31442;SDS011;18065;55.876;9.830;2022-07-17T03:44:10;4.75;;;1.10;;
31442;SDS011;18065;55.876;9.830;2022-07-17T03:46:39;4.85;;;0.93;;
31442;SDS011;18065;55.876;9.830;2022-07-17T03:49:08;3.72;;;1.05;;
31442;SDS011;18065;55.876;9.830;2022-07-17T03:51:37;3.92;;;1.10;;
31442;SDS011;18065;55.876;9.830;2022-07-17T03:54:05;4.95;;;1.25;;
31442;SDS011;18065;55.876;9.830;2022-07-17T03:56:37;6.60;;;1.02;;
31442;SDS011;18065;55.876;9.830;2022-07-17T03:59:06;4.55;;;1.27;;
31442;SDS011;18065;55.876;9.830;2022-07-17T04:01:34;5.60;;;1.20;;
31442;SDS011;18065;55.876;9.830;2022-07-17T04:04:03;4.65;;;1.05;;
31442;SDS011;18065;55.876;9.830;2022-07-17T04:06:32;5.15;;;1.25;;
31442;SDS011;18065;55.876;9.830;2022-07-17T04:09:01;2.25;;;0.93;;
31442;SDS011;18065;55.876;9.830;2022-07-17T04:11:31;3.30;;;0.98;;
31442;SDS011;18065;55.876;9.830;2022-07-17T04:14:02;4.30;;;0.90;;
31442;SDS011;18065;55.876;9.830;2022-07-17T04:16:31;3.92;;;0.98;;
31442;SDS011;18065;55.876;9.830;2022-07-17T04:18:59;4.00;;;1.00;;
31442;SDS011;18065;55.876;9.830;2022-07-17T04:21:28;4.30;;;1.15;;
31442;SDS011;18065;55.876;9.830;2022-07-17T04:23:57;5.85;;;1.25;;
31442;SDS011;18065;55.876;9.830;2022-07-17T04:26:25;1.40;;;0.60;;
31442;SDS011;18065;55.876;9.830;2022-07-17T04:28:54;3.83;;;1.08;;
31442;SDS011;18065;55.876;9.830;2022-07-17T04:31:25;6.30;;;1.27;;
31442;SDS011;18065;55.876;9.830;2022-07-17T04:33:54;3.17;;;0.90;;
31442;SDS011;18065;55.876;9.830;2022-07-17T04:36:23;5.43;;;1.00;;
31442;SDS011;18065;55.876;9.830;2022-07-17T04:38:52;2.00;;;0.98;;
31442;SDS011;18065;55.876;9.830;2022-07-17T04:41:20;3.42;;;1.13;;
31442;SDS011;18065;55.876;9.830;2022-07-17T04:43:49;3.28;;;0.70;;
31442;SDS011;18065;55.876;9.830;2022-07-17T04:46:19;1.77;;;0.68;;
31442;SDS011;18065;55.876;9.830;2022-07-17T04:48:50;5.13;;;1.20;;
31442;SDS011;18065;55.876;9.830;2022-07-17T04:51:19;3.90;;;0.90;;
31442;SDS011;18065;55.876;9.830;2022-07-17T04:53:47;2.47;;;1.00;;
31442;SDS011;18065;55.876;9.830;2022-07-17T04:56:16;4.82;;;1.00;;
31442;SDS011;18065;55.876;9.830;2022-07-17T04:58:45;2.85;;;1.00;;
31442;SDS011;18065;55.876;9.830;2022-07-17T05:01:14;4.10;;;0.70;;
31442;SDS011;18065;55.876;9.830;2022-07-17T05:03:42;3.38;;;0.80;;
31442;SDS011;18065;55.876;9.830;2022-07-17T05:06:14;3.53;;;0.85;;
31442;SDS011;18065;55.876;9.830;2022-07-17T05:08:42;3.95;;;1.17;;
31442;SDS011;18065;55.876;9.830;2022-07-17T05:11:11;4.45;;;0.82;;
31442;SDS011;18065;55.876;9.830;2022-07-17T05:13:40;3.85;;;0.70;;
31442;SDS011;18065;55.876;9.830;2022-07-17T05:16:09;4.95;;;1.10;;
31442;SDS011;18065;55.876;9.830;2022-07-17T05:18:37;4.18;;;0.90;;
31442;SDS011;18065;55.876;9.830;2022-07-17T05:21:06;5.43;;;1.00;;
31442;SDS011;18065;55.876;9.830;2022-07-17T05:23:38;5.35;;;1.10;;
31442;SDS011;18065;55.876;9.830;2022-07-17T05:26:07;2.63;;;0.88;;
31442;SDS011;18065;55.876;9.830;2022-07-17T05:28:36;3.35;;;1.00;;
31442;SDS011;18065;55.876;9.830;2022-07-17T05:31:06;4.40;;;1.40;;
31442;SDS011;18065;55.876;9.830;2022-07-17T05:33:35;2.60;;;0.95;;
31442;SDS011;18065;55.876;9.830;2022-07-17T05:36:04;7.82;;;1.23;;
31442;SDS011;18065;55.876;9.830;2022-07-17T05:38:32;6.70;;;1.50;;
31442;SDS011;18065;55.876;9.830;2022-07-17T05:41:05;7.13;;;1.02;;
31442;SDS011;18065;55.876;9.830;2022-07-17T05:43:34;1.95;;;0.77;;
31442;SDS011;18065;55.876;9.830;2022-07-17T05:46:03;2.85;;;1.10;;
31442;SDS011;18065;55.876;9.830;2022-07-17T05:48:31;3.20;;;0.88;;
31442;SDS011;18065;55.876;9.830;2022-07-17T05:51:00;3.42;;;1.02;;
31442;SDS011;18065;55.876;9.830;2022-07-17T05:53:29;2.03;;;0.75;;
31442;SDS011;18065;55.876;9.830;2022-07-17T05:55:58;3.50;;;1.00;;
31442;SDS011;18065;55.876;9.830;2022-07-17T05:58:30;3.97;;;1.02;;
31442;SDS011;18065;55.876;9.830;2022-07-17T06:00:58;4.45;;;1.02;;
31442;SDS011;18065;55.876;9.830;2022-07-17T06:03:27;6.65;;;1.50;;
31442;SDS011;18065;55.876;9.830;2022-07-17T06:05:56;5.10;;;0.95;;
31442;SDS011;18065;55.876;9.830;2022-07-17T06:08:25;3.88;;;1.23;;
31442;SDS011;18065;55.876;9.830;2022-07-17T06:10:54;4.53;;;1.25;;
31442;SDS011;18065;55.876;9.830;2022-07-17T06:13:23;2.80;;;1.02;;
31442;SDS011;18065;55.876;9.830;2022-07-17T06:15:54;4.50;;;1.00;;
31442;SDS011;18065;55.876;9.830;2022-07-17T06:18:24;3.13;;;0.90;;
31442;SDS011;18065;55.876;9.830;2022-07-17T06:20:53;1.88;;;0.63;;
31442;SDS011;18065;55.876;9.830;2022-07-17T06:23:22;2.38;;;1.10;;
31442;SDS011;18065;55.876;9.830;2022-07-17T06:25:50;2.90;;;0.90;;
31442;SDS011;18065;55.876;9.830;2022-07-17T06:28:19;5.57;;;1.15;;
31442;SDS011;18065;55.876;9.830;2022-07-17T06:30:48;4.10;;;1.05;;
31442;SDS011;18065;55.876;9.830;2022-07-17T06:33:22;5.63;;;1.20;;
31442;SDS011;18065;55.876;9.830;2022-07-17T06:35:51;6.35;;;1.00;;
31442;SDS011;18065;55.876;9.830;2022-07-17T06:38:20;3.17;;;1.02;;
31442;SDS011;18065;55.876;9.830;2022-07-17T06:40:49;4.53;;;1.05;;
31442;SDS011;18065;55.876;9.830;2022-07-17T06:43:18;2.90;;;0.88;;
31442;SDS011;18065;55.876;9.830;2022-07-17T06:45:48;5.57;;;1.17;;
31442;SDS011;18065;55.876;9.830;2022-07-17T06:48:21;6.72;;;1.27;;
31442;SDS011;18065;55.876;9.830;2022-07-17T06:50:50;4.72;;;1.13;;
31442;SDS011;18065;55.876;9.830;2022-07-17T06:53:20;4.35;;;1.13;;
31442;SDS011;18065;55.876;9.830;2022-07-17T06:55:48;7.20;;;1.13;;
31442;SDS011;18065;55.876;9.830;2022-07-17T06:58:17;2.53;;;0.90;;
31442;SDS011;18065;55.876;9.830;2022-07-17T07:00:46;2.50;;;1.25;;
31442;SDS011;18065;55.876;9.830;2022-07-17T07:03:15;4.35;;;0.82;;
31442;SDS011;18065;55.876;9.830;2022-07-17T07:05:47;3.22;;;1.00;;
31442;SDS011;18065;55.876;9.830;2022-07-17T07:08:16;4.78;;;1.20;;
31442;SDS011;18065;55.876;9.830;2022-07-17T07:10:45;5.38;;;0.93;;
31442;SDS011;18065;55.876;9.830;2022-07-17T07:13:13;2.53;;;0.80;;
31442;SDS011;18065;55.876;9.830;2022-07-17T07:15:42;5.57;;;1.20;;
31442;SDS011;18065;55.876;9.830;2022-07-17T07:18:11;5.50;;;1.08;;
31442;SDS011;18065;55.876;9.830;2022-07-17T07:20:40;5.55;;;1.15;;
31442;SDS011;18065;55.876;9.830;2022-07-17T07:23:11;5.72;;;1.05;;
31442;SDS011;18065;55.876;9.830;2022-07-17T07:25:40;1.67;;;0.90;;
31442;SDS011;18065;55.876;9.830;2022-07-17T07:28:09;4.97;;;1.00;;
31442;SDS011;18065;55.876;9.830;2022-07-17T07:30:39;4.60;;;1.20;;
31442;SDS011;18065;55.876;9.830;2022-07-17T07:33:08;5.57;;;0.90;;
31442;SDS011;18065;55.876;9.830;2022-07-17T07:35:36;4.90;;;1.10;;
31442;SDS011;18065;55.876;9.830;2022-07-17T07:38:05;1.92;;;0.93;;
31442;SDS011;18065;55.876;9.830;2022-07-17T07:40:36;4.78;;;1.10;;
31442;SDS011;18065;55.876;9.830;2022-07-17T07:43:05;3.42;;;1.25;;
31442;SDS011;18065;55.876;9.830;2022-07-17T07:45:34;4.35;;;0.85;;
31442;SDS011;18065;55.876;9.830;2022-07-17T07:48:03;2.65;;;1.27;;
31442;SDS011;18065;55.876;9.830;2022-07-17T07:50:32;2.90;;;0.90;;
31442;SDS011;18065;55.876;9.830;2022-07-17T07:53:01;3.65;;;1.13;;
31442;SDS011;18065;55.876;9.830;2022-07-17T07:55:30;3.65;;;1.20;;
31442;SDS011;18065;55.876;9.830;2022-07-17T07:58:05;3.88;;;1.05;;
31442;SDS011;18065;55.876;9.830;2022-07-17T08:00:35;3.13;;;1.08;;
31442;SDS011;18065;55.876;9.830;2022-07-17T08:03:05;4.15;;;1.05;;
31442;SDS011;18065;55.876;9.830;2022-07-17T08:05:34;3.65;;;1.27;;
31442;SDS011;18065;55.876;9.830;2022-07-17T08:08:03;3.47;;;1.20;;
31442;SDS011;18065;55.876;9.830;2022-07-17T08:10:33;2.85;;;1.30;;
31442;SDS011;18065;55.876;9.830;2022-07-17T08:13:04;3.92;;;1.30;;
31442;SDS011;18065;55.876;9.830;2022-07-17T08:15:33;4.32;;;1.48;;
31442;SDS011;18065;55.876;9.830;2022-07-17T08:18:02;3.55;;;1.27;;
31442;SDS011;18065;55.876;9.830;2022-07-17T08:20:31;2.92;;;1.05;;
31442;SDS011;18065;55.876;9.830;2022-07-17T08:23:00;4.15;;;1.13;;
31442;SDS011;18065;55.876;9.830;2022-07-17T08:25:29;8.45;;;1.25;;
31442;SDS011;18065;55.876;9.830;2022-07-17T08:27:58;4.13;;;1.20;;
31442;SDS011;18065;55.876;9.830;2022-07-17T08:30:29;6.38;;;1.58;;
31442;SDS011;18065;55.876;9.830;2022-07-17T08:33:00;4.05;;;1.73;;
31442;SDS011;18065;55.876;9.830;2022-07-17T08:35:29;4.05;;;1.15;;
31442;SDS011;18065;55.876;9.830;2022-07-17T08:37:58;5.25;;;1.20;;
31442;SDS011;18065;55.876;9.830;2022-07-17T08:40:28;1.52;;;1.10;;
31442;SDS011;18065;55.876;9.830;2022-07-17T08:42:59;5.05;;;1.00;;
31442;SDS011;18065;55.876;9.830;2022-07-17T08:45:32;4.50;;;1.13;;
31442;SDS011;18065;55.876;9.830;2022-07-17T08:48:01;3.05;;;0.93;;
31442;SDS011;18065;55.876;9.830;2022-07-17T08:50:31;4.28;;;1.13;;
31442;SDS011;18065;55.876;9.830;2022-07-17T08:53:02;2.53;;;1.00;;
31442;SDS011;18065;55.876;9.830;2022-07-17T08:55:32;2.85;;;1.45;;
31442;SDS011;18065;55.876;9.830;2022-07-17T08:58:01;4.13;;;1.00;;
31442;SDS011;18065;55.876;9.830;2022-07-17T09:00:32;1.65;;;0.90;;
31442;SDS011;18065;55.876;9.830;2022-07-17T09:03:03;2.80;;;0.80;;
31442;SDS011;18065;55.876;9.830;2022-07-17T09:05:33;2.80;;;0.95;;
31442;SDS011;18065;55.876;9.830;2022-07-17T09:08:03;3.03;;;1.25;;
31442;SDS011;18065;55.876;9.830;2022-07-17T09:10:34;1.50;;;0.95;;
31442;SDS011;18065;55.876;9.830;2022-07-17T09:13:16;1.25;;;0.90;;
31442;SDS011;18065;55.876;9.830;2022-07-17T09:15:48;3.20;;;0.90;;
31442;SDS011;18065;55.876;9.830;2022-07-17T09:18:18;2.50;;;1.10;;
31442;SDS011;18065;55.876;9.830;2022-07-17T09:20:49;3.95;;;0.80;;
31442;SDS011;18065;55.876;9.830;2022-07-17T09:23:19;5.15;;;1.63;;
31442;SDS011;18065;55.876;9.830;2022-07-17T09:25:50;3.33;;;0.93;;
31442;SDS011;18065;55.876;9.830;2022-07-17T09:28:20;1.88;;;1.10;;
31442;SDS011;18065;55.876;9.830;2022-07-17T09:30:52;5.03;;;0.98;;
31442;SDS011;18065;55.876;9.830;2022-07-17T09:33:23;3.20;;;1.02;;
31442;SDS011;18065;55.876;9.830;2022-07-17T09:35:55;3.15;;;1.15;;
31442;SDS011;18065;55.876;9.830;2022-07-17T09:38:29;2.88;;;1.00;;
31442;SDS011;18065;55.876;9.830;2022-07-17T09:41:02;1.67;;;0.70;;
31442;SDS011;18065;55.876;9.830;2022-07-17T09:43:42;4.32;;;1.08;;
31442;SDS011;18065;55.876;9.830;2022-07-17T09:46:19;3.03;;;1.05;;
31442;SDS011;18065;55.876;9.830;2022-07-17T09:48:50;3.28;;;0.90;;
31442;SDS011;18065;55.876;9.830;2022-07-17T09:51:21;1.73;;;0.90;;
31442;SDS011;18065;55.876;9.830;2022-07-17T09:53:52;2.90;;;0.90;;
31442;SDS011;18065;55.876;9.830;2022-07-17T09:56:22;3.22;;;1.08;;
31442;SDS011;18065;55.876;9.830;2022-07-17T09:58:53;2.70;;;0.80;;
31442;SDS011;18065;55.876;9.830;2022-07-17T10:01:27;1.40;;;0.80;;
31442;SDS011;18065;55.876;9.830;2022-07-17T10:03:56;2.78;;;0.85;;
31442;SDS011;18065;55.876;9.830;2022-07-17T10:06:25;2.60;;;1.10;;
31442;SDS011;18065;55.876;9.830;2022-07-17T10:08:54;3.08;;;1.00;;
31442;SDS011;18065;55.876;9.830;2022-07-17T10:11:24;3.58;;;0.95;;
31442;SDS011;18065;55.876;9.830;2022-07-17T10:13:56;1.90;;;1.00;;
31442;SDS011;18065;55.876;9.830;2022-07-17T10:16:33;3.95;;;1.50;;
31442;SDS011;18065;55.876;9.830;2022-07-17T10:19:13;3.78;;;1.20;;
31442;SDS011;18065;55.876;9.830;2022-07-17T10:21:53;4.10;;;1.27;;
31442;SDS011;18065;55.876;9.830;2022-07-17T10:24:23;3.28;;;1.20;;
31442;SDS011;18065;55.876;9.830;2022-07-17T10:26:53;2.65;;;0.88;;
31442;SDS011;18065;55.876;9.830;2022-07-17T10:29:29;3.20;;;1.23;;
31442;SDS011;18065;55.876;9.830;2022-07-17T10:32:03;2.60;;;1.13;;
31442;SDS011;18065;55.876;9.830;2022-07-17T10:34:37;4.68;;;1.23;;
31442;SDS011;18065;55.876;9.830;2022-07-17T10:37:17;2.30;;;1.20;;
31442;SDS011;18065;55.876;9.830;2022-07-17T10:39:52;4.63;;;1.30;;
31442;SDS011;18065;55.876;9.830;2022-07-17T10:42:41;3.72;;;1.23;;
31442;SDS011;18065;55.876;9.830;2022-07-17T10:45:22;5.38;;;1.20;;
31442;SDS011;18065;55.876;9.830;2022-07-17T10:47:57;2.30;;;1.00;;
31442;SDS011;18065;55.876;9.830;2022-07-17T10:50:28;6.10;;;1.48;;
31442;SDS011;18065;55.876;9.830;2022-07-17T10:53:08;3.15;;;1.20;;
31442;SDS011;18065;55.876;9.830;2022-07-17T10:55:41;3.38;;;1.23;;
31442;SDS011;18065;55.876;9.830;2022-07-17T10:58:18;3.15;;;1.40;;
31442;SDS011;18065;55.876;9.830;2022-07-17T11:00:58;4.05;;;1.55;;
31442;SDS011;18065;55.876;9.830;2022-07-17T11:03:31;1.95;;;1.33;;
31442;SDS011;18065;55.876;9.830;2022-07-17T11:06:07;5.10;;;1.60;;
31442;SDS011;18065;55.876;9.830;2022-07-17T11:08:40;4.28;;;1.50;;
31442;SDS011;18065;55.876;9.830;2022-07-17T11:11:14;3.75;;;0.95;;
31442;SDS011;18065;55.876;9.830;2022-07-17T11:13:44;3.53;;;1.30;;
31442;SDS011;18065;55.876;9.830;2022-07-17T11:16:13;3.25;;;1.63;;
31442;SDS011;18065;55.876;9.830;2022-07-17T11:18:55;7.55;;;1.77;;
31442;SDS011;18065;55.876;9.830;2022-07-17T11:21:24;6.97;;;1.95;;
31442;SDS011;18065;55.876;9.830;2022-07-17T11:23:54;6.43;;;2.10;;
31442;SDS011;18065;55.876;9.830;2022-07-17T11:26:23;3.20;;;1.45;;
31442;SDS011;18065;55.876;9.830;2022-07-17T11:28:53;3.97;;;1.60;;
31442;SDS011;18065;55.876;9.830;2022-07-17T11:31:24;3.17;;;1.33;;
31442;SDS011;18065;55.876;9.830;2022-07-17T11:33:57;2.80;;;1.30;;
31442;SDS011;18065;55.876;9.830;2022-07-17T11:36:28;4.32;;;1.52;;
31442;SDS011;18065;55.876;9.830;2022-07-17T11:38:59;1.65;;;1.02;;
31442;SDS011;18065;55.876;9.830;2022-07-17T11:41:36;5.07;;;1.45;;
31442;SDS011;18065;55.876;9.830;2022-07-17T11:44:07;3.42;;;1.40;;
31442;SDS011;18065;55.876;9.830;2022-07-17T11:46:38;3.50;;;1.48;;
31442;SDS011;18065;55.876;9.830;2022-07-17T11:49:11;3.63;;;1.33;;
31442;SDS011;18065;55.876;9.830;2022-07-17T11:51:52;3.45;;;1.52;;
31442;SDS011;18065;55.876;9.830;2022-07-17T11:54:23;3.67;;;1.60;;
31442;SDS011;18065;55.876;9.830;2022-07-17T11:56:55;3.42;;;1.55;;
31442;SDS011;18065;55.876;9.830;2022-07-17T11:59:27;4.07;;;1.85;;
31442;SDS011;18065;55.876;9.830;2022-07-17T12:02:05;2.53;;;1.33;;
31442;SDS011;18065;55.876;9.830;2022-07-17T12:04:47;3.15;;;1.50;;
31442;SDS011;18065;55.876;9.830;2022-07-17T12:07:17;3.15;;;1.63;;
31442;SDS011;18065;55.876;9.830;2022-07-17T12:09:46;3.13;;;1.27;;
31442;SDS011;18065;55.876;9.830;2022-07-17T12:12:19;4.85;;;1.05;;
31442;SDS011;18065;55.876;9.830;2022-07-17T12:14:50;5.03;;;1.55;;
31442;SDS011;18065;55.876;9.830;2022-07-17T12:17:19;4.20;;;1.40;;
31442;SDS011;18065;55.876;9.830;2022-07-17T12:19:52;3.47;;;1.50;;
31442;SDS011;18065;55.876;9.830;2022-07-17T12:22:21;2.40;;;1.33;;
31442;SDS011;18065;55.876;9.830;2022-07-17T12:24:51;4.05;;;1.48;;
31442;SDS011;18065;55.876;9.830;2022-07-17T12:27:19;3.15;;;1.83;;
31442;SDS011;18065;55.876;9.830;2022-07-17T12:29:49;5.55;;;1.60;;
31442;SDS011;18065;55.876;9.830;2022-07-17T12:32:18;3.08;;;1.30;;
31442;SDS011;18065;55.876;9.830;2022-07-17T12:34:47;4.60;;;1.20;;
31442;SDS011;18065;55.876;9.830;2022-07-17T12:37:20;3.53;;;1.33;;
31442;SDS011;18065;55.876;9.830;2022-07-17T12:39:49;3.55;;;1.92;;
31442;SDS011;18065;55.876;9.830;2022-07-17T12:42:21;4.25;;;1.40;;
31442;SDS011;18065;55.876;9.830;2022-07-17T12:44:49;4.32;;;1.67;;
31442;SDS011;18065;55.876;9.830;2022-07-17T12:47:18;3.58;;;1.73;;
31442;SDS011;18065;55.876;9.830;2022-07-17T12:49:47;2.22;;;1.42;;
31442;SDS011;18065;55.876;9.830;2022-07-17T12:52:16;3.78;;;1.55;;
31442;SDS011;18065;55.876;9.830;2022-07-17T12:54:48;2.10;;;1.40;;
31442;SDS011;18065;55.876;9.830;2022-07-17T12:57:16;2.90;;;1.17;;
31442;SDS011;18065;55.876;9.830;2022-07-17T12:59:45;3.25;;;1.48;;
31442;SDS011;18065;55.876;9.830;2022-07-17T13:02:14;6.25;;;1.67;;
31442;SDS011;18065;55.876;9.830;2022-07-17T13:04:42;4.05;;;1.38;;
31442;SDS011;18065;55.876;9.830;2022-07-17T13:07:11;3.65;;;1.60;;
31442;SDS011;18065;55.876;9.830;2022-07-17T13:09:40;3.10;;;1.50;;
31442;SDS011;18065;55.876;9.830;2022-07-17T13:12:11;4.38;;;1.60;;
31442;SDS011;18065;55.876;9.830;2022-07-17T13:14:40;3.63;;;1.38;;
31442;SDS011;18065;55.876;9.830;2022-07-17T13:17:08;1.90;;;1.25;;
31442;SDS011;18065;55.876;9.830;2022-07-17T13:19:37;3.33;;;1.45;;
31442;SDS011;18065;55.876;9.830;2022-07-17T13:22:06;2.70;;;1.40;;
31442;SDS011;18065;55.876;9.830;2022-07-17T13:24:35;2.67;;;1.52;;
31442;SDS011;18065;55.876;9.830;2022-07-17T13:27:03;2.03;;;1.20;;
31442;SDS011;18065;55.876;9.830;2022-07-17T13:29:35;2.72;;;1.25;;
31442;SDS011;18065;55.876;9.830;2022-07-17T13:32:04;3.92;;;1.77;;
31442;SDS011;18065;55.876;9.830;2022-07-17T13:34:33;2.25;;;1.05;;
31442;SDS011;18065;55.876;9.830;2022-07-17T13:37:02;2.10;;;1.13;;
31442;SDS011;18065;55.876;9.830;2022-07-17T13:39:32;2.38;;;1.33;;
31442;SDS011;18065;55.876;9.830;2022-07-17T13:42:01;2.90;;;1.20;;
31442;SDS011;18065;55.876;9.830;2022-07-17T13:44:30;2.95;;;1.30;;
31442;SDS011;18065;55.876;9.830;2022-07-17T13:47:01;3.20;;;1.13;;
31442;SDS011;18065;55.876;9.830;2022-07-17T13:49:30;1.55;;;1.20;;
31442;SDS011;18065;55.876;9.830;2022-07-17T13:51:59;3.45;;;1.38;;
31442;SDS011;18065;55.876;9.830;2022-07-17T13:54:27;2.60;;;1.50;;
31442;SDS011;18065;55.876;9.830;2022-07-17T13:56:56;4.85;;;1.67;;
31442;SDS011;18065;55.876;9.830;2022-07-17T13:59:25;3.08;;;1.58;;
31442;SDS011;18065;55.876;9.830;2022-07-17T14:01:54;2.20;;;1.20;;
31442;SDS011;18065;55.876;9.830;2022-07-17T14:04:25;1.98;;;1.45;;
31442;SDS011;18065;55.876;9.830;2022-07-17T14:06:54;3.35;;;1.50;;
31442;SDS011;18065;55.876;9.830;2022-07-17T14:09:23;2.13;;;1.30;;
31442;SDS011;18065;55.876;9.830;2022-07-17T14:11:52;1.83;;;1.23;;
31442;SDS011;18065;55.876;9.830;2022-07-17T14:14:21;2.10;;;1.33;;
31442;SDS011;18065;55.876;9.830;2022-07-17T14:16:52;3.13;;;1.40;;
31442;SDS011;18065;55.876;9.830;2022-07-17T14:19:21;3.55;;;1.92;;
31442;SDS011;18065;55.876;9.830;2022-07-17T14:21:52;2.35;;;1.55;;
31442;SDS011;18065;55.876;9.830;2022-07-17T14:24:21;2.35;;;1.42;;
31442;SDS011;18065;55.876;9.830;2022-07-17T14:26:50;4.93;;;1.80;;
31442;SDS011;18065;55.876;9.830;2022-07-17T14:29:19;3.13;;;1.58;;
31442;SDS011;18065;55.876;9.830;2022-07-17T14:31:51;2.55;;;1.58;;
31442;SDS011;18065;55.876;9.830;2022-07-17T14:34:20;2.35;;;1.55;;
31442;SDS011;18065;55.876;9.830;2022-07-17T14:36:51;2.58;;;1.67;;
31442;SDS011;18065;55.876;9.830;2022-07-17T14:39:20;3.15;;;1.50;;
31442;SDS011;18065;55.876;9.830;2022-07-17T14:41:51;3.33;;;1.48;;
31442;SDS011;18065;55.876;9.830;2022-07-17T14:44:19;2.63;;;1.63;;
31442;SDS011;18065;55.876;9.830;2022-07-17T14:46:48;1.98;;;1.45;;
31442;SDS011;18065;55.876;9.830;2022-07-17T14:49:17;2.13;;;1.45;;
31442;SDS011;18065;55.876;9.830;2022-07-17T14:51:45;2.55;;;1.70;;
31442;SDS011;18065;55.876;9.830;2022-07-17T14:54:17;2.53;;;1.65;;
31442;SDS011;18065;55.876;9.830;2022-07-17T14:56:45;3.40;;;1.30;;
31442;SDS011;18065;55.876;9.830;2022-07-17T14:59:14;4.18;;;1.77;;
31442;SDS011;18065;55.876;9.830;2022-07-17T15:01:43;2.60;;;1.50;;
31442;SDS011;18065;55.876;9.830;2022-07-17T15:04:12;2.55;;;1.52;;
31442;SDS011;18065;55.876;9.830;2022-07-17T15:06:40;2.22;;;1.35;;